Terminal Aerodrome Forecast
Issued by NWS

Home | Current Version | Previous Version | Text Only | Print | Product List | Glossary On
Versions: 1 2 3 4 5 6 7 8 9 10 11 12 13 14 15
854
FTUS43 KJKL 301151
TAFSME
TAF
KSME 301151Z 3012/0112 25006KT P6SM SCT015 OVC060
      TEMPO 3012/3015 3SM -SHRA BR SCT005 OVC015
     FM301500 25006KT P6SM VCSH OVC080
     FM302300 26005KT P6SM SCT025=

USA.gov is the U.S. government's official web portal to all federal, state and local government web resources and services.